sensor_id;sensor_type;location;lat;lon;timestamp;temperature;humidity
65707;SHT31;52423;43.512;5.220;2023-03-31T00:01:33;11.67;84.11
65707;SHT31;52423;43.512;5.220;2023-03-31T00:03:59;11.82;84.19
65707;SHT31;52423;43.512;5.220;2023-03-31T00:06:30;11.70;83.99
65707;SHT31;52423;43.512;5.220;2023-03-31T00:08:56;11.74;83.70
65707;SHT31;52423;43.512;5.220;2023-03-31T00:11:27;11.69;83.72
65707;SHT31;52423;43.512;5.220;2023-03-31T00:13:53;11.58;83.99
65707;SHT31;52423;43.512;5.220;2023-03-31T00:16:18;11.56;84.24
65707;SHT31;52423;43.512;5.220;2023-03-31T00:18:44;11.65;83.79
65707;SHT31;52423;43.512;5.220;2023-03-31T00:21:16;11.67;83.54
65707;SHT31;52423;43.512;5.220;2023-03-31T00:24:05;11.63;83.44
65707;SHT31;52423;43.512;5.220;2023-03-31T00:26:31;11.80;83.01
65707;SHT31;52423;43.512;5.220;2023-03-31T00:28:57;11.67;82.92
65707;SHT31;52423;43.512;5.220;2023-03-31T00:31:23;11.62;83.41
65707;SHT31;52423;43.512;5.220;2023-03-31T00:33:49;11.56;83.45
65707;SHT31;52423;43.512;5.220;2023-03-31T00:36:16;11.55;83.23
65707;SHT31;52423;43.512;5.220;2023-03-31T00:38:46;11.49;83.42
65707;SHT31;52423;43.512;5.220;2023-03-31T00:41:12;11.59;82.95
65707;SHT31;52423;43.512;5.220;2023-03-31T00:43:38;11.49;82.86
65707;SHT31;52423;43.512;5.220;2023-03-31T00:48:33;11.44;83.17
65707;SHT31;52423;43.512;5.220;2023-03-31T00:51:03;11.42;82.73
65707;SHT31;52423;43.512;5.220;2023-03-31T00:53:31;11.38;83.02
65707;SHT31;52423;43.512;5.220;2023-03-31T00:56:01;11.36;82.79
65707;SHT31;52423;43.512;5.220;2023-03-31T00:58:29;11.43;82.96
65707;SHT31;52423;43.512;5.220;2023-03-31T01:01:01;11.43;82.53
65707;SHT31;52423;43.512;5.220;2023-03-31T01:03:28;11.56;82.20
65707;SHT31;52423;43.512;5.220;2023-03-31T01:06:00;11.43;82.63
65707;SHT31;52423;43.512;5.220;2023-03-31T01:08:28;11.40;82.39
65707;SHT31;52423;43.512;5.220;2023-03-31T01:10:57;11.42;82.29
65707;SHT31;52423;43.512;5.220;2023-03-31T01:13:24;11.40;82.26
65707;SHT31;52423;43.512;5.220;2023-03-31T01:15:50;11.38;82.40
65707;SHT31;52423;43.512;5.220;2023-03-31T01:18:16;11.42;82.34
65707;SHT31;52423;43.512;5.220;2023-03-31T01:21:16;11.36;82.26
65707;SHT31;52423;43.512;5.220;2023-03-31T01:26:59;11.33;82.20
65707;SHT31;52423;43.512;5.220;2023-03-31T01:32:34;11.36;82.57
65707;SHT31;52423;43.512;5.220;2023-03-31T01:44:00;11.18;82.74
65707;SHT31;52423;43.512;5.220;2023-03-31T01:46:34;11.19;82.89
65707;SHT31;52423;43.512;5.220;2023-03-31T01:54:22;11.05;83.33
65707;SHT31;52423;43.512;5.220;2023-03-31T01:57:00;11.15;83.12
65707;SHT31;52423;43.512;5.220;2023-03-31T01:59:45;11.19;82.85
65707;SHT31;52423;43.512;5.220;2023-03-31T02:02:24;11.23;82.66
65707;SHT31;52423;43.512;5.220;2023-03-31T02:05:08;11.39;82.87
65707;SHT31;52423;43.512;5.220;2023-03-31T02:07:54;11.33;82.33
65707;SHT31;52423;43.512;5.220;2023-03-31T02:10:21;11.32;82.71
65707;SHT31;52423;43.512;5.220;2023-03-31T02:12:48;11.46;82.22
65707;SHT31;52423;43.512;5.220;2023-03-31T02:15:21;11.49;82.07
65707;SHT31;52423;43.512;5.220;2023-03-31T02:17:50;11.51;81.92
65707;SHT31;52423;43.512;5.220;2023-03-31T02:20:20;11.56;81.27
65707;SHT31;52423;43.512;5.220;2023-03-31T02:22:49;11.46;81.61
65707;SHT31;52423;43.512;5.220;2023-03-31T02:25:18;11.44;81.67
65707;SHT31;52423;43.512;5.220;2023-03-31T02:27:50;11.33;81.86
65707;SHT31;52423;43.512;5.220;2023-03-31T02:30:18;11.33;82.01
65707;SHT31;52423;43.512;5.220;2023-03-31T02:32:44;11.28;81.91
65707;SHT31;52423;43.512;5.220;2023-03-31T02:35:18;11.32;81.78
65707;SHT31;52423;43.512;5.220;2023-03-31T02:37:45;11.29;82.36
65707;SHT31;52423;43.512;5.220;2023-03-31T02:40:19;11.21;81.76
65707;SHT31;52423;43.512;5.220;2023-03-31T02:42:45;11.16;82.16
65707;SHT31;52423;43.512;5.220;2023-03-31T02:48:02;11.21;82.13
65707;SHT31;52423;43.512;5.220;2023-03-31T02:50:33;11.25;82.06
65707;SHT31;52423;43.512;5.220;2023-03-31T02:53:16;11.28;82.11
65707;SHT31;52423;43.512;5.220;2023-03-31T02:55:53;11.29;81.84
65707;SHT31;52423;43.512;5.220;2023-03-31T02:59:05;11.40;81.83
65707;SHT31;52423;43.512;5.220;2023-03-31T03:01:51;11.43;81.28
65707;SHT31;52423;43.512;5.220;2023-03-31T03:04:59;11.38;81.56
65707;SHT31;52423;43.512;5.220;2023-03-31T03:10:42;11.40;81.69
65707;SHT31;52423;43.512;5.220;2023-03-31T03:15:41;11.42;81.22
65707;SHT31;52423;43.512;5.220;2023-03-31T03:18:08;11.36;81.76
65707;SHT31;52423;43.512;5.220;2023-03-31T03:20:34;11.36;81.56
65707;SHT31;52423;43.512;5.220;2023-03-31T03:23:00;11.36;81.64
65707;SHT31;52423;43.512;5.220;2023-03-31T03:25:26;11.38;81.65
65707;SHT31;52423;43.512;5.220;2023-03-31T03:27:51;11.52;81.24
65707;SHT31;52423;43.512;5.220;2023-03-31T03:30:19;11.53;81.22
65707;SHT31;52423;43.512;5.220;2023-03-31T03:32:45;11.51;81.20
65707;SHT31;52423;43.512;5.220;2023-03-31T03:35:11;11.52;81.32
65707;SHT31;52423;43.512;5.220;2023-03-31T03:37:37;11.56;81.29
65707;SHT31;52423;43.512;5.220;2023-03-31T03:40:03;11.62;81.25
65707;SHT31;52423;43.512;5.220;2023-03-31T03:42:32;11.52;81.04
65707;SHT31;52423;43.512;5.220;2023-03-31T03:44:58;11.49;81.21
65707;SHT31;52423;43.512;5.220;2023-03-31T03:47:24;11.47;81.39
65707;SHT31;52423;43.512;5.220;2023-03-31T03:49:49;11.51;81.21
65707;SHT31;52423;43.512;5.220;2023-03-31T03:52:15;11.47;81.34
65707;SHT31;52423;43.512;5.220;2023-03-31T03:54:40;11.46;81.43
65707;SHT31;52423;43.512;5.220;2023-03-31T03:57:06;11.40;81.41
65707;SHT31;52423;43.512;5.220;2023-03-31T03:59:32;11.38;81.52
65707;SHT31;52423;43.512;5.220;2023-03-31T04:01:57;11.38;81.65
65707;SHT31;52423;43.512;5.220;2023-03-31T04:04:23;11.43;81.50
65707;SHT31;52423;43.512;5.220;2023-03-31T04:06:48;11.38;81.75
65707;SHT31;52423;43.512;5.220;2023-03-31T04:09:14;11.43;81.34
65707;SHT31;52423;43.512;5.220;2023-03-31T04:11:39;11.40;81.45
65707;SHT31;52423;43.512;5.220;2023-03-31T04:14:05;11.36;81.66
65707;SHT31;52423;43.512;5.220;2023-03-31T04:16:30;11.39;81.65
65707;SHT31;52423;43.512;5.220;2023-03-31T04:18:58;11.40;81.59
65707;SHT31;52423;43.512;5.220;2023-03-31T04:21:28;11.55;81.60
65707;SHT31;52423;43.512;5.220;2023-03-31T04:23:55;11.56;81.57
65707;SHT31;52423;43.512;5.220;2023-03-31T04:26:27;11.58;81.42
65707;SHT31;52423;43.512;5.220;2023-03-31T04:29:10;11.52;81.58
65707;SHT31;52423;43.512;5.220;2023-03-31T04:31:37;11.49;81.79
65707;SHT31;52423;43.512;5.220;2023-03-31T04:34:04;11.46;81.72
65707;SHT31;52423;43.512;5.220;2023-03-31T04:36:31;11.53;81.91
65707;SHT31;52423;43.512;5.220;2023-03-31T04:38:58;11.66;81.36
65707;SHT31;52423;43.512;5.220;2023-03-31T04:41:24;11.67;81.21
65707;SHT31;52423;43.512;5.220;2023-03-31T04:43:51;11.69;81.23
65707;SHT31;52423;43.512;5.220;2023-03-31T04:46:17;11.63;81.01
65707;SHT31;52423;43.512;5.220;2023-03-31T04:48:42;11.55;81.32
65707;SHT31;52423;43.512;5.220;2023-03-31T04:51:08;11.53;81.74
65707;SHT31;52423;43.512;5.220;2023-03-31T04:53:34;11.55;81.47
65707;SHT31;52423;43.512;5.220;2023-03-31T04:55:59;11.51;81.65
65707;SHT31;52423;43.512;5.220;2023-03-31T04:58:25;11.38;81.83
65707;SHT31;52423;43.512;5.220;2023-03-31T05:00:51;11.40;81.73
65707;SHT31;52423;43.512;5.220;2023-03-31T05:03:17;11.42;81.81
65707;SHT31;52423;43.512;5.220;2023-03-31T05:05:42;11.39;81.79
65707;SHT31;52423;43.512;5.220;2023-03-31T05:08:08;11.35;81.89
65707;SHT31;52423;43.512;5.220;2023-03-31T05:10:33;11.35;82.09
65707;SHT31;52423;43.512;5.220;2023-03-31T05:12:58;11.26;82.30
65707;SHT31;52423;43.512;5.220;2023-03-31T05:15:24;11.31;82.17
65707;SHT31;52423;43.512;5.220;2023-03-31T05:17:50;11.28;82.18
65707;SHT31;52423;43.512;5.220;2023-03-31T05:20:17;11.31;82.20
65707;SHT31;52423;43.512;5.220;2023-03-31T05:22:42;11.28;82.25
65707;SHT31;52423;43.512;5.220;2023-03-31T05:25:08;11.31;82.33
65707;SHT31;52423;43.512;5.220;2023-03-31T05:27:34;11.39;82.22
65707;SHT31;52423;43.512;5.220;2023-03-31T05:30:01;11.33;82.11
65707;SHT31;52423;43.512;5.220;2023-03-31T05:32:27;11.35;82.33
65707;SHT31;52423;43.512;5.220;2023-03-31T05:34:53;11.29;82.17
65707;SHT31;52423;43.512;5.220;2023-03-31T05:37:22;11.29;82.41
65707;SHT31;52423;43.512;5.220;2023-03-31T05:39:48;11.36;82.48
65707;SHT31;52423;43.512;5.220;2023-03-31T05:42:13;11.29;82.39
65707;SHT31;52423;43.512;5.220;2023-03-31T05:44:38;11.25;82.61
65707;SHT31;52423;43.512;5.220;2023-03-31T05:47:04;11.23;82.73
65707;SHT31;52423;43.512;5.220;2023-03-31T05:49:30;11.22;82.87
65707;SHT31;52423;43.512;5.220;2023-03-31T05:51:55;11.33;82.64
65707;SHT31;52423;43.512;5.220;2023-03-31T05:54:21;11.39;82.30
65707;SHT31;52423;43.512;5.220;2023-03-31T05:56:47;11.31;82.40
65707;SHT31;52423;43.512;5.220;2023-03-31T05:59:13;11.31;82.48
65707;SHT31;52423;43.512;5.220;2023-03-31T06:01:38;11.29;82.64
65707;SHT31;52423;43.512;5.220;2023-03-31T06:04:04;11.21;82.85
65707;SHT31;52423;43.512;5.220;2023-03-31T06:06:29;11.23;82.69
65707;SHT31;52423;43.512;5.220;2023-03-31T06:08:54;11.23;82.77
65707;SHT31;52423;43.512;5.220;2023-03-31T06:11:21;11.29;82.67
65707;SHT31;52423;43.512;5.220;2023-03-31T06:13:47;11.29;82.77
65707;SHT31;52423;43.512;5.220;2023-03-31T06:16:14;11.32;82.81
65707;SHT31;52423;43.512;5.220;2023-03-31T06:18:40;11.31;82.64
65707;SHT31;52423;43.512;5.220;2023-03-31T06:21:06;11.35;82.62
65707;SHT31;52423;43.512;5.220;2023-03-31T06:23:32;11.33;82.79
65707;SHT31;52423;43.512;5.220;2023-03-31T06:26:03;11.32;82.89
65707;SHT31;52423;43.512;5.220;2023-03-31T06:28:30;11.36;83.18
65707;SHT31;52423;43.512;5.220;2023-03-31T06:31:16;11.44;82.75
65707;SHT31;52423;43.512;5.220;2023-03-31T06:33:42;11.52;82.89
65707;SHT31;52423;43.512;5.220;2023-03-31T06:36:08;11.52;82.90
65707;SHT31;52423;43.512;5.220;2023-03-31T06:38:36;11.51;82.87
65707;SHT31;52423;43.512;5.220;2023-03-31T06:41:02;11.56;82.77
65707;SHT31;52423;43.512;5.220;2023-03-31T06:43:28;11.60;82.91
65707;SHT31;52423;43.512;5.220;2023-03-31T06:45:54;11.59;82.94
65707;SHT31;52423;43.512;5.220;2023-03-31T06:48:20;11.63;82.72
65707;SHT31;52423;43.512;5.220;2023-03-31T06:50:45;11.66;82.78
65707;SHT31;52423;43.512;5.220;2023-03-31T06:53:11;11.67;82.73
65707;SHT31;52423;43.512;5.220;2023-03-31T06:55:37;11.77;82.72
65707;SHT31;52423;43.512;5.220;2023-03-31T06:58:03;11.80;82.59
65707;SHT31;52423;43.512;5.220;2023-03-31T07:00:29;11.94;82.60
65707;SHT31;52423;43.512;5.220;2023-03-31T07:02:55;12.00;82.31
65707;SHT31;52423;43.512;5.220;2023-03-31T07:05:23;11.94;82.52
65707;SHT31;52423;43.512;5.220;2023-03-31T07:07:55;11.95;82.29
65707;SHT31;52423;43.512;5.220;2023-03-31T07:10:22;12.01;82.29
65707;SHT31;52423;43.512;5.220;2023-03-31T07:12:48;12.05;82.25
65707;SHT31;52423;43.512;5.220;2023-03-31T07:15:14;12.08;82.05
65707;SHT31;52423;43.512;5.220;2023-03-31T07:17:39;12.18;81.93
65707;SHT31;52423;43.512;5.220;2023-03-31T07:20:10;12.18;81.81
65707;SHT31;52423;43.512;5.220;2023-03-31T07:22:43;12.27;81.92
65707;SHT31;52423;43.512;5.220;2023-03-31T07:25:09;12.32;82.04
65707;SHT31;52423;43.512;5.220;2023-03-31T07:27:36;12.41;81.55
65707;SHT31;52423;43.512;5.220;2023-03-31T07:30:11;12.54;81.64
65707;SHT31;52423;43.512;5.220;2023-03-31T07:32:37;12.54;81.20
65707;SHT31;52423;43.512;5.220;2023-03-31T07:35:09;12.65;81.04
65707;SHT31;52423;43.512;5.220;2023-03-31T07:37:36;12.76;80.65
65707;SHT31;52423;43.512;5.220;2023-03-31T07:40:02;12.86;80.39
65707;SHT31;52423;43.512;5.220;2023-03-31T07:42:29;12.96;80.49
65707;SHT31;52423;43.512;5.220;2023-03-31T07:44:55;13.09;80.02
65707;SHT31;52423;43.512;5.220;2023-03-31T07:47:20;13.03;79.58
65707;SHT31;52423;43.512;5.220;2023-03-31T07:49:46;13.12;80.11
65707;SHT31;52423;43.512;5.220;2023-03-31T07:52:13;13.19;79.74
65707;SHT31;52423;43.512;5.220;2023-03-31T07:54:39;13.47;78.62
65707;SHT31;52423;43.512;5.220;2023-03-31T07:57:05;13.58;78.37
65707;SHT31;52423;43.512;5.220;2023-03-31T07:59:32;13.65;78.91
65707;SHT31;52423;43.512;5.220;2023-03-31T08:01:58;13.74;77.86
65707;SHT31;52423;43.512;5.220;2023-03-31T08:04:23;13.74;77.84
65707;SHT31;52423;43.512;5.220;2023-03-31T08:06:49;13.74;77.74
65707;SHT31;52423;43.512;5.220;2023-03-31T08:09:15;13.85;78.03
65707;SHT31;52423;43.512;5.220;2023-03-31T08:11:42;14.08;77.87
65707;SHT31;52423;43.512;5.220;2023-03-31T08:14:08;14.26;77.80
65707;SHT31;52423;43.512;5.220;2023-03-31T08:16:34;14.69;76.68
65707;SHT31;52423;43.512;5.220;2023-03-31T08:18:59;14.80;76.46
65707;SHT31;52423;43.512;5.220;2023-03-31T08:21:27;14.77;76.28
65707;SHT31;52423;43.512;5.220;2023-03-31T08:23:53;14.94;75.71
65707;SHT31;52423;43.512;5.220;2023-03-31T08:26:19;14.81;75.48
65707;SHT31;52423;43.512;5.220;2023-03-31T08:28:49;14.46;77.26
65707;SHT31;52423;43.512;5.220;2023-03-31T08:31:15;14.36;77.25
65707;SHT31;52423;43.512;5.220;2023-03-31T08:33:43;14.70;77.52
65707;SHT31;52423;43.512;5.220;2023-03-31T08:36:09;14.98;76.54
65707;SHT31;52423;43.512;5.220;2023-03-31T08:38:39;14.94;76.54
65707;SHT31;52423;43.512;5.220;2023-03-31T08:41:48;14.85;76.88
65707;SHT31;52423;43.512;5.220;2023-03-31T08:44:23;14.97;75.73
65707;SHT31;52423;43.512;5.220;2023-03-31T08:46:51;15.17;76.50
65707;SHT31;52423;43.512;5.220;2023-03-31T08:49:21;15.14;76.43
65707;SHT31;52423;43.512;5.220;2023-03-31T08:51:54;14.87;77.47
65707;SHT31;52423;43.512;5.220;2023-03-31T08:56:48;15.07;77.55
65707;SHT31;52423;43.512;5.220;2023-03-31T08:59:32;15.49;76.51
65707;SHT31;52423;43.512;5.220;2023-03-31T09:02:39;15.73;75.91
65707;SHT31;52423;43.512;5.220;2023-03-31T09:10:38;15.32;76.66
65707;SHT31;52423;43.512;5.220;2023-03-31T09:16:14;15.58;74.63
65707;SHT31;52423;43.512;5.220;2023-03-31T09:18:40;15.87;74.67
65707;SHT31;52423;43.512;5.220;2023-03-31T09:21:21;16.07;74.24
65707;SHT31;52423;43.512;5.220;2023-03-31T09:23:55;16.37;74.25
65707;SHT31;52423;43.512;5.220;2023-03-31T09:26:34;16.40;72.50
65707;SHT31;52423;43.512;5.220;2023-03-31T09:29:01;16.34;73.71
65707;SHT31;52423;43.512;5.220;2023-03-31T09:31:28;16.16;73.57
65707;SHT31;52423;43.512;5.220;2023-03-31T09:33:59;16.33;72.52
65707;SHT31;52423;43.512;5.220;2023-03-31T09:36:25;16.25;73.53
65707;SHT31;52423;43.512;5.220;2023-03-31T09:38:51;16.23;72.69
65707;SHT31;52423;43.512;5.220;2023-03-31T09:41:17;16.40;72.79
65707;SHT31;52423;43.512;5.220;2023-03-31T09:43:43;16.43;73.55
65707;SHT31;52423;43.512;5.220;2023-03-31T09:46:32;16.44;72.46
65707;SHT31;52423;43.512;5.220;2023-03-31T09:49:03;16.50;73.00
65707;SHT31;52423;43.512;5.220;2023-03-31T09:51:34;16.60;72.60
65707;SHT31;52423;43.512;5.220;2023-03-31T09:54:21;16.47;72.59
65707;SHT31;52423;43.512;5.220;2023-03-31T09:56:50;16.44;72.43
65707;SHT31;52423;43.512;5.220;2023-03-31T09:59:31;16.45;72.79
65707;SHT31;52423;43.512;5.220;2023-03-31T10:01:59;16.37;72.71
65707;SHT31;52423;43.512;5.220;2023-03-31T10:04:29;16.43;72.45
65707;SHT31;52423;43.512;5.220;2023-03-31T10:06:58;16.48;71.65
65707;SHT31;52423;43.512;5.220;2023-03-31T10:09:25;16.55;72.35
65707;SHT31;52423;43.512;5.220;2023-03-31T10:12:03;16.58;72.89
65707;SHT31;52423;43.512;5.220;2023-03-31T10:14:39;16.74;71.22
65707;SHT31;52423;43.512;5.220;2023-03-31T10:17:06;16.64;72.45
65707;SHT31;52423;43.512;5.220;2023-03-31T10:19:35;16.65;72.62
65707;SHT31;52423;43.512;5.220;2023-03-31T10:22:44;16.43;72.40
65707;SHT31;52423;43.512;5.220;2023-03-31T10:24:51;16.44;72.44
65707;SHT31;52423;43.512;5.220;2023-03-31T10:27:24;16.48;72.94
65707;SHT31;52423;43.512;5.220;2023-03-31T10:29:52;16.37;72.95
65707;SHT31;52423;43.512;5.220;2023-03-31T10:34:45;16.23;72.97
65707;SHT31;52423;43.512;5.220;2023-03-31T10:37:15;16.31;73.49
65707;SHT31;52423;43.512;5.220;2023-03-31T10:39:42;16.37;72.93
65707;SHT31;52423;43.512;5.220;2023-03-31T10:42:08;16.21;73.06
65707;SHT31;52423;43.512;5.220;2023-03-31T10:44:36;16.40;73.71
65707;SHT31;52423;43.512;5.220;2023-03-31T10:47:05;16.35;73.59
65707;SHT31;52423;43.512;5.220;2023-03-31T10:49:37;16.53;73.06
65707;SHT31;52423;43.512;5.220;2023-03-31T10:52:02;16.50;71.67
65707;SHT31;52423;43.512;5.220;2023-03-31T10:54:28;16.44;72.59
65707;SHT31;52423;43.512;5.220;2023-03-31T10:56:58;16.38;72.83
65707;SHT31;52423;43.512;5.220;2023-03-31T11:10:33;17.06;70.99
65707;SHT31;52423;43.512;5.220;2023-03-31T11:29:59;18.02;68.78
65707;SHT31;52423;43.512;5.220;2023-03-31T11:41:07;18.38;67.95
65707;SHT31;52423;43.512;5.220;2023-03-31T11:43:43;18.38;67.58
65707;SHT31;52423;43.512;5.220;2023-03-31T11:46:17;18.41;67.33
65707;SHT31;52423;43.512;5.220;2023-03-31T11:48:53;18.60;66.96
65707;SHT31;52423;43.512;5.220;2023-03-31T11:51:42;18.57;66.09
65707;SHT31;52423;43.512;5.220;2023-03-31T11:54:18;18.63;66.28
65707;SHT31;52423;43.512;5.220;2023-03-31T11:56:44;18.57;66.57
65707;SHT31;52423;43.512;5.220;2023-03-31T11:59:14;18.55;66.77
65707;SHT31;52423;43.512;5.220;2023-03-31T12:01:53;18.55;65.27
65707;SHT31;52423;43.512;5.220;2023-03-31T12:04:36;18.38;66.62
65707;SHT31;52423;43.512;5.220;2023-03-31T12:07:15;18.62;65.72
65707;SHT31;52423;43.512;5.220;2023-03-31T12:13:08;18.69;65.40
65707;SHT31;52423;43.512;5.220;2023-03-31T12:15:43;18.63;66.16
65707;SHT31;52423;43.512;5.220;2023-03-31T12:18:18;18.80;65.64
65707;SHT31;52423;43.512;5.220;2023-03-31T12:21:11;18.92;66.69
65707;SHT31;52423;43.512;5.220;2023-03-31T12:23:42;18.80;65.27
65707;SHT31;52423;43.512;5.220;2023-03-31T12:26:13;18.97;65.27
65707;SHT31;52423;43.512;5.220;2023-03-31T12:28:43;18.86;65.39
65707;SHT31;52423;43.512;5.220;2023-03-31T12:31:16;18.74;64.55
65707;SHT31;52423;43.512;5.220;2023-03-31T12:34:09;18.74;65.08
65707;SHT31;52423;43.512;5.220;2023-03-31T12:57:50;19.96;58.24
65707;SHT31;52423;43.512;5.220;2023-03-31T13:02:45;19.50;60.76
65707;SHT31;52423;43.512;5.220;2023-03-31T13:08:03;19.30;60.67
65707;SHT31;52423;43.512;5.220;2023-03-31T13:10:30;18.94;61.77
65707;SHT31;52423;43.512;5.220;2023-03-31T13:13:12;18.92;63.66
65707;SHT31;52423;43.512;5.220;2023-03-31T13:15:38;18.84;63.02
65707;SHT31;52423;43.512;5.220;2023-03-31T13:18:06;18.90;63.37
65707;SHT31;52423;43.512;5.220;2023-03-31T13:20:38;18.92;62.26
65707;SHT31;52423;43.512;5.220;2023-03-31T13:28:09;18.96;64.48
65707;SHT31;52423;43.512;5.220;2023-03-31T13:50:02;18.36;69.41
65707;SHT31;52423;43.512;5.220;2023-03-31T13:58:17;18.21;70.54
65707;SHT31;52423;43.512;5.220;2023-03-31T14:06:37;18.12;70.83
65707;SHT31;52423;43.512;5.220;2023-03-31T14:09:07;18.31;70.31
65707;SHT31;52423;43.512;5.220;2023-03-31T14:11:33;18.45;68.88
65707;SHT31;52423;43.512;5.220;2023-03-31T14:14:13;18.41;70.00
65707;SHT31;52423;43.512;5.220;2023-03-31T14:16:44;18.29;69.54
65707;SHT31;52423;43.512;5.220;2023-03-31T14:22:01;18.69;69.95
65707;SHT31;52423;43.512;5.220;2023-03-31T14:33:24;19.07;65.23
65707;SHT31;52423;43.512;5.220;2023-03-31T14:38:36;19.24;64.84
65707;SHT31;52423;43.512;5.220;2023-03-31T14:41:02;19.18;64.69
65707;SHT31;52423;43.512;5.220;2023-03-31T14:43:31;19.17;65.39
65707;SHT31;52423;43.512;5.220;2023-03-31T14:46:05;19.25;65.46
65707;SHT31;52423;43.512;5.220;2023-03-31T14:48:35;19.30;65.01
65707;SHT31;52423;43.512;5.220;2023-03-31T14:51:08;19.17;64.05
65707;SHT31;52423;43.512;5.220;2023-03-31T14:53:34;18.89;64.93
65707;SHT31;52423;43.512;5.220;2023-03-31T14:56:06;19.06;65.42
65707;SHT31;52423;43.512;5.220;2023-03-31T14:58:44;18.84;64.95
65707;SHT31;52423;43.512;5.220;2023-03-31T15:01:14;18.62;66.47
65707;SHT31;52423;43.512;5.220;2023-03-31T15:03:41;18.42;66.62
65707;SHT31;52423;43.512;5.220;2023-03-31T15:06:08;18.28;67.76
65707;SHT31;52423;43.512;5.220;2023-03-31T15:08:35;18.04;67.79
65707;SHT31;52423;43.512;5.220;2023-03-31T15:11:07;18.12;68.52
65707;SHT31;52423;43.512;5.220;2023-03-31T15:13:44;18.18;67.76
65707;SHT31;52423;43.512;5.220;2023-03-31T15:16:42;18.15;68.18
65707;SHT31;52423;43.512;5.220;2023-03-31T15:19:23;18.34;67.48
65707;SHT31;52423;43.512;5.220;2023-03-31T15:22:07;18.56;66.91
65707;SHT31;52423;43.512;5.220;2023-03-31T15:24:34;18.49;66.88
65707;SHT31;52423;43.512;5.220;2023-03-31T15:29:47;18.60;67.14
65707;SHT31;52423;43.512;5.220;2023-03-31T15:32:21;19.03;60.09
65707;SHT31;52423;43.512;5.220;2023-03-31T15:34:49;19.39;47.81
65707;SHT31;52423;43.512;5.220;2023-03-31T15:37:15;19.52;48.68
65707;SHT31;52423;43.512;5.220;2023-03-31T15:39:46;19.57;49.19
65707;SHT31;52423;43.512;5.220;2023-03-31T15:42:12;19.64;47.72
65707;SHT31;52423;43.512;5.220;2023-03-31T15:44:46;19.82;49.21
65707;SHT31;52423;43.512;5.220;2023-03-31T15:47:23;20.08;46.51
65707;SHT31;52423;43.512;5.220;2023-03-31T15:49:56;20.09;45.90
65707;SHT31;52423;43.512;5.220;2023-03-31T15:52:27;20.06;44.71
65707;SHT31;52423;43.512;5.220;2023-03-31T15:54:53;19.99;44.56
65707;SHT31;52423;43.512;5.220;2023-03-31T15:57:18;20.00;45.21
65707;SHT31;52423;43.512;5.220;2023-03-31T15:59:54;19.95;45.26
65707;SHT31;52423;43.512;5.220;2023-03-31T16:02:24;19.81;44.94
65707;SHT31;52423;43.512;5.220;2023-03-31T16:04:54;19.72;45.58
65707;SHT31;52423;43.512;5.220;2023-03-31T16:07:22;19.58;45.04
65707;SHT31;52423;43.512;5.220;2023-03-31T16:14:57;19.58;43.74
65707;SHT31;52423;43.512;5.220;2023-03-31T16:17:31;19.69;43.49
65707;SHT31;52423;43.512;5.220;2023-03-31T16:20:10;19.69;43.80
65707;SHT31;52423;43.512;5.220;2023-03-31T16:22:45;19.61;43.68
65707;SHT31;52423;43.512;5.220;2023-03-31T16:25:17;19.52;44.03
65707;SHT31;52423;43.512;5.220;2023-03-31T16:27:46;19.36;43.44
65707;SHT31;52423;43.512;5.220;2023-03-31T16:30:15;19.36;44.76
65707;SHT31;52423;43.512;5.220;2023-03-31T16:35:35;19.31;45.27
65707;SHT31;52423;43.512;5.220;2023-03-31T16:38:02;19.27;45.26
65707;SHT31;52423;43.512;5.220;2023-03-31T16:40:35;19.32;45.38
65707;SHT31;52423;43.512;5.220;2023-03-31T16:43:24;19.25;45.80
65707;SHT31;52423;43.512;5.220;2023-03-31T16:45:51;19.30;46.15
65707;SHT31;52423;43.512;5.220;2023-03-31T16:48:19;19.24;46.01
65707;SHT31;52423;43.512;5.220;2023-03-31T16:50:46;19.27;46.83
65707;SHT31;52423;43.512;5.220;2023-03-31T16:53:14;19.21;46.14
65707;SHT31;52423;43.512;5.220;2023-03-31T16:55:40;19.11;46.74
65707;SHT31;52423;43.512;5.220;2023-03-31T16:58:05;19.03;46.55
65707;SHT31;52423;43.512;5.220;2023-03-31T17:00:32;18.97;45.51
65707;SHT31;52423;43.512;5.220;2023-03-31T17:03:00;18.83;44.16
65707;SHT31;52423;43.512;5.220;2023-03-31T17:05:26;18.74;45.05
65707;SHT31;52423;43.512;5.220;2023-03-31T17:07:52;18.65;44.75
65707;SHT31;52423;43.512;5.220;2023-03-31T17:10:18;18.59;44.14
65707;SHT31;52423;43.512;5.220;2023-03-31T17:12:43;18.52;43.75
65707;SHT31;52423;43.512;5.220;2023-03-31T17:15:09;18.52;43.89
65707;SHT31;52423;43.512;5.220;2023-03-31T17:17:35;18.41;44.04
65707;SHT31;52423;43.512;5.220;2023-03-31T17:20:02;18.34;45.00
65707;SHT31;52423;43.512;5.220;2023-03-31T17:22:28;18.31;44.15
65707;SHT31;52423;43.512;5.220;2023-03-31T17:24:54;18.25;44.72
65707;SHT31;52423;43.512;5.220;2023-03-31T17:27:23;18.28;44.79
65707;SHT31;52423;43.512;5.220;2023-03-31T17:29:48;18.25;45.10
65707;SHT31;52423;43.512;5.220;2023-03-31T17:32:14;18.19;45.16
65707;SHT31;52423;43.512;5.220;2023-03-31T17:34:40;18.14;45.26
65707;SHT31;52423;43.512;5.220;2023-03-31T17:37:06;18.16;45.30
65707;SHT31;52423;43.512;5.220;2023-03-31T17:39:32;18.09;44.70
65707;SHT31;52423;43.512;5.220;2023-03-31T17:41:57;18.16;45.08
65707;SHT31;52423;43.512;5.220;2023-03-31T17:44:23;18.02;45.07
65707;SHT31;52423;43.512;5.220;2023-03-31T17:46:49;18.02;44.53
65707;SHT31;52423;43.512;5.220;2023-03-31T17:49:14;17.90;45.26
65707;SHT31;52423;43.512;5.220;2023-03-31T17:51:41;17.78;44.56
65707;SHT31;52423;43.512;5.220;2023-03-31T17:54:07;17.69;45.55
65707;SHT31;52423;43.512;5.220;2023-03-31T17:56:33;17.63;45.42
65707;SHT31;52423;43.512;5.220;2023-03-31T17:58:59;17.59;45.31
65707;SHT31;52423;43.512;5.220;2023-03-31T18:01:24;17.46;45.93
65707;SHT31;52423;43.512;5.220;2023-03-31T18:03:50;17.44;45.82
65707;SHT31;52423;43.512;5.220;2023-03-31T18:06:15;17.32;46.63
65707;SHT31;52423;43.512;5.220;2023-03-31T18:08:42;17.33;46.31
65707;SHT31;52423;43.512;5.220;2023-03-31T18:11:08;17.25;46.51
65707;SHT31;52423;43.512;5.220;2023-03-31T18:13:34;17.09;47.57
65707;SHT31;52423;43.512;5.220;2023-03-31T18:16:00;16.98;47.77
65707;SHT31;52423;43.512;5.220;2023-03-31T18:18:27;17.03;46.93
65707;SHT31;52423;43.512;5.220;2023-03-31T18:20:53;16.96;48.22
65707;SHT31;52423;43.512;5.220;2023-03-31T18:23:19;16.88;47.70
65707;SHT31;52423;43.512;5.220;2023-03-31T18:25:45;16.88;47.93
65707;SHT31;52423;43.512;5.220;2023-03-31T18:28:15;16.78;48.53
65707;SHT31;52423;43.512;5.220;2023-03-31T18:30:41;16.68;49.17
65707;SHT31;52423;43.512;5.220;2023-03-31T18:33:09;16.57;49.42
65707;SHT31;52423;43.512;5.220;2023-03-31T18:35:36;16.55;49.44
65707;SHT31;52423;43.512;5.220;2023-03-31T18:38:02;16.44;49.90